createdAt,value
2023-01-17T00:00:34.994Z,92947.41
2023-01-17T00:01:37.011Z,92957.47
2023-01-17T00:02:42.105Z,92957.03
2023-01-17T00:04:02.384Z,92956.28
2023-01-17T00:05:23.705Z,92952.81
2023-01-17T00:06:44.478Z,92954.00
2023-01-17T00:08:05.136Z,92955.22
2023-01-17T00:09:27.849Z,92957.94
2023-01-17T00:10:32.437Z,92956.41
2023-01-17T00:11:34.447Z,92961.81
2023-01-17T00:12:37.617Z,92959.13
2023-01-17T00:13:39.720Z,92961.53
2023-01-17T00:14:42.682Z,92960.78
2023-01-17T00:15:45.695Z,92966.19
2023-01-17T00:16:47.703Z,92955.38
2023-01-17T00:17:51.752Z,92963.16
2023-01-17T00:19:08.580Z,92966.34
2023-01-17T00:20:32.592Z,92960.31
2023-01-17T00:21:53.343Z,92958.78
2023-01-17T00:23:13.679Z,92958.06
2023-01-17T00:24:30.474Z,92951.91
2023-01-17T00:25:56.188Z,92962.09
2023-01-17T00:27:13.324Z,92968.72
2023-01-17T00:28:15.658Z,92975.00
2023-01-17T00:29:17.496Z,92966.59
2023-01-17T00:30:19.603Z,92968.53
2023-01-17T00:31:21.550Z,92973.94
2023-01-17T00:32:23.476Z,92973.50
2023-01-17T00:33:25.711Z,92973.22
2023-01-17T00:34:27.497Z,92971.72
2023-01-17T00:35:31.596Z,92966.31
2023-01-17T00:36:33.490Z,92975.16
2023-01-17T00:37:35.376Z,92972.47
2023-01-17T00:38:38.991Z,92974.69
2023-01-17T00:39:40.864Z,92966.31
2023-01-17T00:40:45.566Z,92977.41
2023-01-17T00:41:47.467Z,92980.09
2023-01-17T00:42:49.384Z,92978.94
2023-01-17T00:44:09.955Z,92985.81
2023-01-17T00:45:32.791Z,92987.78
2023-01-17T00:46:53.091Z,92985.53
2023-01-17T00:48:13.869Z,92988.22
2023-01-17T00:49:34.540Z,92988.69
2023-01-17T00:50:55.337Z,92996.06
2023-01-17T00:52:15.633Z,93006.41
2023-01-17T00:53:36.479Z,92999.03
2023-01-17T00:54:56.812Z,92997.84
2023-01-17T00:56:20.844Z,92995.47
2023-01-17T00:57:41.649Z,93010.47
2023-01-17T00:59:01.985Z,93007.78
2023-01-17T01:00:23.893Z,92997.69
2023-01-17T01:01:44.700Z,93007.78
2023-01-17T01:03:05.388Z,93017.22
2023-01-17T01:04:28.158Z,93013.16
2023-01-17T01:05:48.902Z,93011.34
2023-01-17T01:07:11.920Z,93020.66
2023-01-17T01:08:37.031Z,93015.88
2023-01-17T01:09:57.280Z,93023.53
2023-01-17T01:11:17.662Z,93028.19
2023-01-17T01:12:39.177Z,93021.28
2023-01-17T01:13:59.537Z,93027.91
2023-01-17T01:15:20.154Z,93020.53
2023-01-17T01:16:40.689Z,93023.22
2023-01-17T01:18:02.608Z,93023.97
2023-01-17T01:19:24.712Z,93025.19
2023-01-17T01:20:45.364Z,93028.63
2023-01-17T01:22:05.708Z,93029.38
2023-01-17T01:23:28.364Z,93026.69
2023-01-17T01:24:49.183Z,93023.66
2023-01-17T01:26:12.142Z,93023.66
2023-01-17T01:27:33.297Z,93030.59
2023-01-17T01:28:54.797Z,93029.69
2023-01-17T01:30:15.496Z,93028.50
2023-01-17T01:31:35.866Z,93021.16
2023-01-17T01:32:56.701Z,93021.59
2023-01-17T01:33:59.600Z,93017.69
2023-01-17T01:35:01.545Z,93020.09
2023-01-17T01:36:09.335Z,93024.28
2023-01-17T01:37:11.243Z,93020.41
2023-01-17T01:38:14.330Z,93015.75
2023-01-17T01:39:16.305Z,93023.38
2023-01-17T01:40:20.767Z,93013.78
2023-01-17T01:41:22.945Z,93019.50
2023-01-17T01:42:26.025Z,93019.50
2023-01-17T01:43:43.445Z,93012.13
2023-01-17T01:44:50.819Z,93019.50
2023-01-17T01:45:58.276Z,93018.28
2023-01-17T01:47:01.943Z,93017.97
2023-01-17T01:48:07.437Z,93021.47
2023-01-17T01:49:20.750Z,93017.22
2023-01-17T01:50:23.293Z,93014.53
2023-01-17T01:51:29.127Z,93019.50
2023-01-17T01:52:33.604Z,93024.91
2023-01-17T01:53:40.634Z,93022.19
2023-01-17T01:54:47.541Z,93017.97
2023-01-17T01:55:53.075Z,93013.03
2023-01-17T01:56:58.632Z,93017.69
2023-01-17T01:58:09.653Z,93013.47
2023-01-17T01:59:15.808Z,93017.38
2023-01-17T02:00:23.035Z,93011.19
2023-01-17T02:01:25.122Z,93013.47
2023-01-17T02:02:32.193Z,93015.13
2023-01-17T02:03:36.151Z,93014.38
2023-01-17T02:04:39.640Z,93011.34
2023-01-17T02:05:43.732Z,93005.03
2023-01-17T02:06:52.739Z,93009.72
2023-01-17T02:08:02.070Z,93002.34
2023-01-17T02:09:09.197Z,93015.13
2023-01-17T02:10:12.798Z,93008.97
2023-01-17T02:11:16.196Z,93006.56
2023-01-17T02:12:19.457Z,93010.44
2023-01-17T02:13:22.585Z,93014.69
2023-01-17T02:14:25.943Z,93025.50
2023-01-17T02:15:33.443Z,93022.31
2023-01-17T02:17:04.064Z,93016.47
2023-01-17T02:18:16.199Z,93013.78
2023-01-17T02:19:49.060Z,93017.97
2023-01-17T02:21:17.709Z,93020.41
2023-01-17T02:22:44.028Z,93018.44
2023-01-17T02:24:16.963Z,93015.00
2023-01-17T02:25:43.582Z,93014.22
2023-01-17T02:26:54.058Z,93018.88
2023-01-17T02:28:15.285Z,93014.38
2023-01-17T02:30:04.037Z,93010.91
2023-01-17T02:31:12.543Z,93014.38
2023-01-17T02:32:21.610Z,93015.13
2023-01-17T02:33:29.275Z,93015.13
2023-01-17T02:34:42.342Z,93013.16
2023-01-17T02:35:55.001Z,93015.56
2023-01-17T02:37:05.839Z,93016.00
2023-01-17T02:38:16.453Z,93025.19
2023-01-17T02:39:24.053Z,93020.97
2023-01-17T02:40:29.785Z,93020.53
2023-01-17T02:41:37.298Z,93021.28
2023-01-17T02:42:46.081Z,93012.41
2023-01-17T02:43:51.523Z,93018.56
2023-01-17T02:44:53.456Z,93013.47
2023-01-17T02:45:56.501Z,93013.47
2023-01-17T02:46:59.827Z,93018.88
2023-01-17T02:48:03.081Z,93018.13
2023-01-17T02:49:05.166Z,93012.28
2023-01-17T02:50:11.289Z,93017.69
2023-01-17T02:51:42.063Z,93020.41
2023-01-17T02:53:02.628Z,93011.06
2023-01-17T02:54:21.726Z,93015.00
2023-01-17T02:55:36.888Z,93014.22
2023-01-17T02:56:49.079Z,93019.63
2023-01-17T02:58:06.562Z,93020.41
2023-01-17T02:59:18.358Z,93018.88
2023-01-17T03:00:27.883Z,93021.28
2023-01-17T03:01:38.080Z,93018.56
2023-01-17T03:02:50.842Z,93014.38
2023-01-17T03:03:58.820Z,93016.00
2023-01-17T03:05:06.309Z,93027.59
2023-01-17T03:06:14.206Z,93022.16
2023-01-17T03:07:20.962Z,93013.75
2023-01-17T03:08:23.634Z,93024.56
2023-01-17T03:09:27.605Z,93016.13
2023-01-17T03:10:32.780Z,93017.34
2023-01-17T03:11:36.007Z,93010.84
2023-01-17T03:12:39.420Z,93011.31
2023-01-17T03:13:42.377Z,93016.72
2023-01-17T03:14:44.388Z,93013.28
2023-01-17T03:15:47.736Z,93017.91
2023-01-17T03:16:50.042Z,93016.41
2023-01-17T03:17:59.979Z,93014.47
2023-01-17T03:19:02.241Z,93019.13
2023-01-17T03:20:05.983Z,93020.31
2023-01-17T03:21:08.045Z,93020.31
2023-01-17T03:22:10.998Z,93022.72
2023-01-17T03:23:13.024Z,93013.41
2023-01-17T03:24:16.205Z,93014.63
2023-01-17T03:25:18.254Z,93017.31
2023-01-17T03:26:21.305Z,93017.31
2023-01-17T03:27:23.305Z,93014.63
2023-01-17T03:28:26.265Z,93021.19
2023-01-17T03:29:28.244Z,93026.59
2023-01-17T03:30:31.341Z,93025.13
2023-01-17T03:31:33.570Z,93018.94
2023-01-17T03:32:36.791Z,93014.31
2023-01-17T03:33:40.215Z,93018.66
2023-01-17T03:34:43.229Z,93014.41
2023-01-17T03:35:45.318Z,93016.38
2023-01-17T03:36:48.399Z,93014.41
2023-01-17T03:37:50.751Z,93019.09
2023-01-17T03:38:53.738Z,93017.56
2023-01-17T03:39:55.743Z,93020.25
2023-01-17T03:40:58.650Z,93016.06
2023-01-17T03:42:00.705Z,93013.06
2023-01-17T03:43:06.822Z,93023.88
2023-01-17T03:44:08.767Z,93013.50
2023-01-17T03:45:12.706Z,93026.25
2023-01-17T03:46:20.936Z,93020.84
2023-01-17T03:47:23.949Z,93030.16
2023-01-17T03:48:25.954Z,93024.75
2023-01-17T03:49:30.344Z,93032.13
2023-01-17T03:50:32.481Z,93034.06
2023-01-17T03:51:35.570Z,93034.06
2023-01-17T03:52:37.528Z,93030.59
2023-01-17T03:53:40.390Z,93030.28
2023-01-17T03:54:42.426Z,93030.28
2023-01-17T03:55:47.671Z,93028.78
2023-01-17T03:56:49.927Z,93034.19
2023-01-17T03:57:52.871Z,93029.97
2023-01-17T03:58:54.864Z,93032.69
2023-01-17T03:59:57.983Z,93029.97
2023-01-17T04:01:00.333Z,93031.19
2023-01-17T04:02:06.430Z,93027.41
2023-01-17T04:03:12.135Z,93034.00
2023-01-17T04:04:14.931Z,93025.91
2023-01-17T04:05:19.372Z,93031.00
2023-01-17T04:06:21.445Z,93031.75
2023-01-17T04:07:24.461Z,93033.69
2023-01-17T04:08:26.504Z,93023.66
2023-01-17T04:09:33.950Z,93022.88
2023-01-17T04:10:35.983Z,93034.91
2023-01-17T04:11:38.976Z,93032.19
2023-01-17T04:12:41.664Z,93036.09
2023-01-17T04:13:44.635Z,93029.19
2023-01-17T04:14:48.181Z,93026.47
2023-01-17T04:15:52.286Z,93031.13
2023-01-17T04:16:54.497Z,93025.72
2023-01-17T04:17:57.926Z,93023.78
2023-01-17T04:18:59.934Z,93022.28
2023-01-17T04:20:03.004Z,93033.09
2023-01-17T04:21:07.679Z,93023.03
2023-01-17T04:22:13.015Z,93023.78
2023-01-17T04:23:14.952Z,93024.22
2023-01-17T04:24:18.179Z,93026.16
2023-01-17T04:25:20.146Z,93028.88
2023-01-17T04:26:23.104Z,93027.38
2023-01-17T04:27:25.110Z,93031.56
2023-01-17T04:28:28.117Z,93031.56
2023-01-17T04:29:30.119Z,93029.31
2023-01-17T04:30:33.938Z,93030.06
2023-01-17T04:31:35.981Z,93028.56
2023-01-17T04:32:39.060Z,93033.22
2023-01-17T04:33:41.067Z,93028.25
2023-01-17T04:34:44.136Z,93028.25
2023-01-17T04:35:46.467Z,93023.28
2023-01-17T04:36:51.804Z,93031.41
2023-01-17T04:37:53.841Z,93031.84
2023-01-17T04:38:56.897Z,93033.34
2023-01-17T04:39:58.919Z,93026.44
2023-01-17T04:41:04.382Z,93033.34
2023-01-17T04:42:06.401Z,93031.84
2023-01-17T04:43:09.400Z,93030.34
2023-01-17T04:44:11.423Z,93035.75
2023-01-17T04:45:15.379Z,93028.81
2023-01-17T04:46:17.465Z,93027.63
2023-01-17T04:47:20.472Z,93023.41
2023-01-17T04:48:22.653Z,93028.81
2023-01-17T04:49:26.845Z,93035.75
2023-01-17T04:50:28.825Z,93027.63
2023-01-17T04:51:31.867Z,93026.44
2023-01-17T04:52:35.297Z,93031.84
2023-01-17T04:53:38.292Z,93030.34
2023-01-17T04:54:40.484Z,93025.69
2023-01-17T04:55:46.761Z,93021.03
2023-01-17T04:56:49.171Z,93030.34
2023-01-17T04:57:52.266Z,93028.81
2023-01-17T04:58:57.836Z,93024.63
2023-01-17T04:59:59.868Z,93021.91
2023-01-17T05:01:04.181Z,93031.19
2023-01-17T05:02:06.545Z,93022.78
2023-01-17T05:03:09.675Z,93024.75
2023-01-17T05:04:14.014Z,93025.94
2023-01-17T05:05:16.995Z,93030.16
2023-01-17T05:06:18.979Z,93027.44
2023-01-17T05:07:22.028Z,93028.66
2023-01-17T05:08:25.332Z,93029.81
2023-01-17T05:09:28.286Z,93027.91
2023-01-17T05:10:30.368Z,93029.41
2023-01-17T05:11:33.309Z,93036.75
2023-01-17T05:12:35.305Z,93040.94
2023-01-17T05:13:38.209Z,93040.19
2023-01-17T05:14:40.158Z,93037.50
2023-01-17T05:15:43.286Z,93038.25
2023-01-17T05:16:45.185Z,93044.41
2023-01-17T05:17:48.148Z,93050.56
2023-01-17T05:18:52.280Z,93055.22
2023-01-17T05:19:55.168Z,93050.56
2023-01-17T05:21:01.758Z,93055.97
2023-01-17T05:22:15.192Z,93062.13
2023-01-17T05:23:18.282Z,93061.38
2023-01-17T05:24:21.554Z,93067.22
2023-01-17T05:25:25.570Z,93057.63
2023-01-17T05:26:27.547Z,93054.59
2023-01-17T05:27:30.712Z,93066.16
2023-01-17T05:28:32.694Z,93069.59
2023-01-17T05:29:35.595Z,93068.84
2023-01-17T05:30:37.817Z,93068.09
2023-01-17T05:31:40.729Z,93067.78
2023-01-17T05:32:45.205Z,93067.78
2023-01-17T05:33:48.161Z,93070.50
2023-01-17T05:34:51.008Z,93071.69
2023-01-17T05:35:54.044Z,93072.88
2023-01-17T05:36:56.215Z,93074.84
2023-01-17T05:37:59.809Z,93072.88
2023-01-17T05:39:01.806Z,93078.28
2023-01-17T05:40:09.625Z,93076.00
2023-01-17T05:41:11.561Z,93074.50
2023-01-17T05:42:16.765Z,93073.00
2023-01-17T05:43:19.792Z,93074.94
2023-01-17T05:44:22.843Z,93068.78
2023-01-17T05:45:27.180Z,93072.69
2023-01-17T05:46:30.238Z,93073.44
2023-01-17T05:47:32.251Z,93066.53
2023-01-17T05:48:35.272Z,93082.72
2023-01-17T05:49:38.909Z,93070.44
2023-01-17T05:50:40.892Z,93071.19
2023-01-17T05:51:43.813Z,93079.72
2023-01-17T05:52:50.146Z,93089.78
2023-01-17T05:53:53.145Z,93079.72
2023-01-17T05:54:55.115Z,93084.38
2023-01-17T05:55:59.399Z,93083.63
2023-01-17T05:57:01.415Z,93077.97
2023-01-17T05:58:05.098Z,93074.38
2023-01-17T05:59:08.079Z,93077.84
2023-01-17T06:00:11.196Z,93079.78
2023-01-17T06:01:17.726Z,93064.78
2023-01-17T06:02:19.724Z,93068.66
2023-01-17T06:03:22.741Z,93067.16
2023-01-17T06:04:24.746Z,93065.66
2023-01-17T06:05:29.536Z,93064.13
2023-01-17T06:06:31.422Z,93062.66
2023-01-17T06:07:34.701Z,93060.38
2023-01-17T06:08:37.606Z,93065.03
2023-01-17T06:09:39.534Z,93058.09
2023-01-17T06:10:42.423Z,93060.81
2023-01-17T06:11:45.708Z,93055.53
2023-01-17T06:12:48.994Z,93065.59
2023-01-17T06:13:52.009Z,93055.41
2023-01-17T06:14:53.988Z,93055.28
2023-01-17T06:16:02.610Z,93066.41
2023-01-17T06:17:05.420Z,93053.66
2023-01-17T06:18:09.432Z,93055.59
2023-01-17T06:19:11.449Z,93064.13
2023-01-17T06:20:14.581Z,93061.88
2023-01-17T06:21:16.516Z,93060.38
2023-01-17T06:22:21.685Z,93053.47
2023-01-17T06:23:25.810Z,93054.22
2023-01-17T06:24:27.790Z,93053.47
2023-01-17T06:25:30.938Z,93058.88
2023-01-17T06:26:33.477Z,93053.91
2023-01-17T06:27:37.803Z,93046.97
2023-01-17T06:28:39.692Z,93049.69
2023-01-17T06:29:42.635Z,93053.59
2023-01-17T06:30:45.055Z,93057.78
2023-01-17T06:31:48.109Z,93052.09
2023-01-17T06:32:52.917Z,93047.44
2023-01-17T06:33:55.938Z,93054.78
2023-01-17T06:34:57.856Z,93055.97
2023-01-17T06:36:00.766Z,93054.47
2023-01-17T06:37:02.741Z,93053.69
2023-01-17T06:38:05.779Z,93050.25
2023-01-17T06:39:07.866Z,93047.25
2023-01-17T06:40:12.343Z,93051.47
2023-01-17T06:41:14.271Z,93048.44
2023-01-17T06:42:17.302Z,93051.88
2023-01-17T06:43:20.911Z,93049.94
2023-01-17T06:44:26.673Z,93061.19
2023-01-17T06:45:29.925Z,93056.53
2023-01-17T06:46:32.953Z,93055.03
2023-01-17T06:47:38.202Z,93061.63
2023-01-17T06:48:43.550Z,93056.22
2023-01-17T06:49:45.579Z,93050.81
2023-01-17T06:50:49.868Z,93054.28
2023-01-17T06:51:51.971Z,93063.91
2023-01-17T06:52:59.735Z,93050.81
2023-01-17T06:54:03.136Z,93062.38
2023-01-17T06:55:07.232Z,93050.81
2023-01-17T06:56:09.410Z,93055.91
2023-01-17T06:57:12.297Z,93053.22
2023-01-17T06:58:14.327Z,93053.22
2023-01-17T06:59:18.669Z,93058.59
2023-01-17T07:00:21.408Z,93059.03
2023-01-17T07:01:24.488Z,93054.09
2023-01-17T07:02:26.555Z,93054.09
2023-01-17T07:03:29.506Z,93047.94
2023-01-17T07:04:31.700Z,93047.16
2023-01-17T07:05:36.335Z,93046.84
2023-01-17T07:06:38.624Z,93044.16
2023-01-17T07:07:41.545Z,93052.25
2023-01-17T07:08:43.528Z,93041.44
2023-01-17T07:09:46.472Z,93041.44
2023-01-17T07:10:49.171Z,93044.16
2023-01-17T07:11:59.564Z,93044.59
2023-01-17T07:13:01.544Z,93048.06
2023-01-17T07:14:04.525Z,93051.19
2023-01-17T07:15:10.442Z,93051.97
2023-01-17T07:16:12.462Z,93051.19
2023-01-17T07:17:15.399Z,93058.22
2023-01-17T07:18:20.699Z,93048.31
2023-01-17T07:19:23.966Z,93052.19
2023-01-17T07:20:26.891Z,93052.19
2023-01-17T07:21:29.859Z,93054.88
2023-01-17T07:22:31.879Z,93056.72
2023-01-17T07:23:34.797Z,93048.81
2023-01-17T07:24:40.020Z,93045.41
2023-01-17T07:25:42.021Z,93043.53
2023-01-17T07:26:45.048Z,93047.94
2023-01-17T07:27:46.992Z,93044.53
2023-01-17T07:28:49.967Z,93046.25
2023-01-17T07:29:54.143Z,93044.91
2023-01-17T07:30:58.640Z,93049.00
2023-01-17T07:32:00.806Z,93035.03
2023-01-17T07:33:04.035Z,93045.41
2023-01-17T07:34:07.454Z,93036.97
2023-01-17T07:35:09.893Z,93033.97
2023-01-17T07:36:13.021Z,93033.34
2023-01-17T07:37:15.478Z,93034.69
2023-01-17T07:38:20.539Z,93036.28
2023-01-17T07:39:23.575Z,93030.59
2023-01-17T07:40:27.038Z,93033.00
2023-01-17T07:41:32.331Z,93030.28
2023-01-17T07:42:39.554Z,93025.19
2023-01-17T07:43:42.562Z,93030.47
2023-01-17T07:44:45.191Z,93029.28
2023-01-17T07:45:50.604Z,93026.44
2023-01-17T07:46:55.689Z,93033.34
2023-01-17T07:47:58.017Z,93022.84
2023-01-17T07:49:00.972Z,93022.41
2023-01-17T07:50:04.559Z,93023.16
2023-01-17T07:51:07.559Z,93018.53
2023-01-17T07:52:09.942Z,93015.34
2023-01-17T07:53:12.935Z,93016.88
2023-01-17T07:54:16.020Z,93010.56
2023-01-17T07:55:18.465Z,93012.06
2023-01-17T07:56:47.628Z,93006.97
2023-01-17T07:57:50.778Z,92999.94
2023-01-17T07:58:53.711Z,92993.34
2023-01-17T07:59:55.847Z,92992.91
2023-01-17T08:01:05.128Z,92998.31
2023-01-17T08:02:17.659Z,92989.75
2023-01-17T08:03:20.765Z,92994.41
2023-01-17T08:04:26.046Z,92986.72
2023-01-17T08:05:30.729Z,92999.38
2023-01-17T08:06:32.813Z,92993.06
2023-01-17T08:07:35.938Z,92999.97
2023-01-17T08:08:38.854Z,92999.38
2023-01-17T08:09:40.943Z,93003.41
2023-01-17T08:10:43.911Z,93001.03
2023-01-17T08:11:45.876Z,93012.38
2023-01-17T08:12:50.176Z,93005.06
2023-01-17T08:13:57.332Z,93010.00
2023-01-17T08:15:00.251Z,93013.75
2023-01-17T08:16:02.484Z,93013.44
2023-01-17T08:17:06.744Z,93014.22
2023-01-17T08:18:10.036Z,93005.81
2023-01-17T08:19:13.055Z,93000.41
2023-01-17T08:20:15.916Z,93012.38
2023-01-17T08:21:18.933Z,93007.44
2023-01-17T08:22:20.968Z,93001.25
2023-01-17T08:23:24.479Z,93001.25
2023-01-17T08:24:26.464Z,93010.56
2023-01-17T08:25:29.411Z,93009.84
2023-01-17T08:26:31.384Z,93008.31
2023-01-17T08:27:36.176Z,93009.53
2023-01-17T08:28:39.226Z,93006.81
2023-01-17T08:29:46.964Z,93009.94
2023-01-17T08:30:50.026Z,93013.88
2023-01-17T08:31:52.137Z,93009.63
2023-01-17T08:32:55.393Z,93010.84
2023-01-17T08:33:58.670Z,93012.03
2023-01-17T08:35:01.610Z,93010.53
2023-01-17T08:36:04.140Z,93011.75
2023-01-17T08:37:07.072Z,93010.97
2023-01-17T08:38:12.576Z,93010.22
2023-01-17T08:39:15.855Z,93005.25
2023-01-17T08:40:19.797Z,93012.59
2023-01-17T08:41:23.787Z,93009.16
2023-01-17T08:42:25.772Z,93008.41
2023-01-17T08:43:28.851Z,93009.59
2023-01-17T08:44:31.735Z,93008.09
2023-01-17T08:45:34.848Z,93014.25
2023-01-17T08:46:38.009Z,93013.50
2023-01-17T08:47:41.025Z,93000.72
2023-01-17T08:48:43.364Z,93000.00
2023-01-17T08:49:47.688Z,93003.88
2023-01-17T08:50:50.918Z,93000.00
2023-01-17T08:51:53.915Z,93008.09
2023-01-17T08:53:00.955Z,93004.81
2023-01-17T08:54:07.166Z,93002.84
2023-01-17T08:55:11.070Z,92999.41
2023-01-17T08:56:14.081Z,92992.06
2023-01-17T08:57:16.119Z,92995.53
2023-01-17T08:58:19.076Z,92986.22
2023-01-17T08:59:21.618Z,92986.22
2023-01-17T09:00:24.616Z,92989.22
2023-01-17T09:01:27.642Z,92989.34
2023-01-17T09:02:29.887Z,92989.97
2023-01-17T09:03:34.134Z,92992.25
2023-01-17T09:04:36.425Z,92993.72
2023-01-17T09:05:41.368Z,92987.16
2023-01-17T09:06:45.425Z,92994.06
2023-01-17T09:07:48.445Z,93000.97
2023-01-17T09:08:54.839Z,92998.28
2023-01-17T09:09:57.880Z,93001.25
2023-01-17T09:11:04.220Z,92993.72
2023-01-17T09:12:07.828Z,92998.72
2023-01-17T09:13:09.880Z,92990.59
2023-01-17T09:14:13.901Z,92992.41
2023-01-17T09:15:20.218Z,92992.41
2023-01-17T09:16:23.308Z,92994.69
2023-01-17T09:17:26.252Z,92997.38
2023-01-17T09:18:30.614Z,92995.00
2023-01-17T09:19:33.753Z,93004.16
2023-01-17T09:20:36.703Z,92996.34
2023-01-17T09:21:40.015Z,93001.03
2023-01-17T09:22:46.183Z,92995.63
2023-01-17T09:23:49.471Z,93001.03
2023-01-17T09:24:51.515Z,92997.09
2023-01-17T09:25:54.941Z,92993.66
2023-01-17T09:26:58.056Z,92997.84
2023-01-17T09:28:01.438Z,92998.59
2023-01-17T09:29:03.690Z,92993.19
2023-01-17T09:30:07.792Z,92995.91
2023-01-17T09:31:10.094Z,92994.41
2023-01-17T09:32:13.136Z,92993.66
2023-01-17T09:33:15.136Z,92995.63
2023-01-17T09:34:18.622Z,92996.03
2023-01-17T09:35:20.815Z,92998.75
2023-01-17T09:36:24.472Z,92987.94
2023-01-17T09:37:28.847Z,92988.69
2023-01-17T09:38:30.888Z,92974.41
2023-01-17T09:39:33.972Z,92972.47
2023-01-17T09:40:38.397Z,92979.09
2023-01-17T09:41:48.240Z,92975.91
2023-01-17T09:42:54.214Z,92973.22
2023-01-17T09:44:01.185Z,92972.47
2023-01-17T09:45:04.679Z,92970.97
2023-01-17T09:46:14.982Z,92972.47
2023-01-17T09:47:27.633Z,92969.03
2023-01-17T09:48:37.973Z,92974.00
2023-01-17T09:49:44.288Z,92960.47
2023-01-17T09:50:50.580Z,92967.38
2023-01-17T09:51:54.702Z,92955.34
2023-01-17T09:53:01.372Z,92949.94
2023-01-17T09:54:06.763Z,92946.81
2023-01-17T09:55:14.437Z,92936.75
2023-01-17T09:56:20.937Z,92936.75
2023-01-17T09:57:40.243Z,92932.84
2023-01-17T09:58:50.993Z,92926.25
2023-01-17T10:00:04.819Z,92918.13
2023-01-17T10:01:18.968Z,92902.66
2023-01-17T10:02:40.074Z,92899.50
2023-01-17T10:03:50.897Z,92890.66
2023-01-17T10:05:16.297Z,92888.69
2023-01-17T10:06:37.148Z,92890.22
2023-01-17T10:07:48.262Z,92887.53
2023-01-17T10:09:14.730Z,92891.72
2023-01-17T10:10:29.633Z,92893.19
2023-01-17T10:11:47.127Z,92892.03
2023-01-17T10:12:58.672Z,92892.03
2023-01-17T10:14:17.762Z,92886.63
2023-01-17T10:15:49.838Z,92883.91
2023-01-17T10:16:59.117Z,92881.22
2023-01-17T10:18:29.128Z,92881.50
2023-01-17T10:19:45.174Z,92885.41
2023-01-17T10:20:55.188Z,92881.66
2023-01-17T10:22:17.515Z,92883.91
2023-01-17T10:23:38.134Z,92892.03
2023-01-17T10:25:16.924Z,92887.78
2023-01-17T10:26:24.923Z,92887.78
2023-01-17T10:27:32.732Z,92895.63
2023-01-17T10:28:41.683Z,92896.50
2023-01-17T10:29:48.587Z,92890.94
2023-01-17T10:30:52.878Z,92886.28
2023-01-17T10:32:01.065Z,92889.44
2023-01-17T10:33:12.930Z,92892.13
2023-01-17T10:34:22.344Z,92890.19
2023-01-17T10:35:30.998Z,92885.06
2023-01-17T10:36:40.569Z,92893.50
2023-01-17T10:37:44.353Z,92891.09
2023-01-17T10:38:49.228Z,92884.50
2023-01-17T10:39:54.570Z,92884.50
2023-01-17T10:41:02.892Z,92879.41
2023-01-17T10:42:14.435Z,92879.25
2023-01-17T10:43:23.773Z,92877.59
2023-01-17T10:44:34.385Z,92878.34
2023-01-17T10:45:41.410Z,92884.84
2023-01-17T10:46:49.302Z,92878.22
2023-01-17T10:48:01.843Z,92872.06
2023-01-17T10:49:04.018Z,92871.31
2023-01-17T10:50:11.621Z,92874.03
2023-01-17T10:51:43.836Z,92873.72
2023-01-17T10:52:55.625Z,92867.53
2023-01-17T10:54:12.475Z,92862.59
2023-01-17T10:55:29.294Z,92868.31
2023-01-17T10:56:35.503Z,92864.38
2023-01-17T10:57:41.491Z,92864.38
2023-01-17T10:58:44.439Z,92865.91
2023-01-17T10:59:48.507Z,92867.41
2023-01-17T11:00:57.635Z,92850.56
2023-01-17T11:02:06.965Z,92857.50
2023-01-17T11:03:14.202Z,92862.13
2023-01-17T11:04:21.226Z,92852.09
2023-01-17T11:05:27.033Z,92846.69
2023-01-17T11:06:33.257Z,92850.13
2023-01-17T11:07:35.276Z,92848.16
2023-01-17T11:08:51.828Z,92846.22
2023-01-17T11:09:56.662Z,92841.56
2023-01-17T11:11:04.790Z,92837.66
2023-01-17T11:12:20.122Z,92828.34
2023-01-17T11:13:31.799Z,92831.50
2023-01-17T11:14:36.030Z,92833.75
2023-01-17T11:15:41.948Z,92835.69
2023-01-17T11:16:45.177Z,92826.53
2023-01-17T11:17:52.995Z,92823.53
2023-01-17T11:19:09.005Z,92821.13
2023-01-17T11:20:20.949Z,92805.66
2023-01-17T11:21:26.539Z,92801.03
2023-01-17T11:22:28.439Z,92804.78
2023-01-17T11:23:34.336Z,92804.78
2023-01-17T11:24:41.848Z,92799.81
2023-01-17T11:25:51.038Z,92808.66
2023-01-17T11:26:54.134Z,92801.16
2023-01-17T11:28:03.371Z,92793.47
2023-01-17T11:29:17.207Z,92797.41
2023-01-17T11:30:20.649Z,92793.66
2023-01-17T11:31:26.980Z,92787.19
2023-01-17T11:32:32.072Z,92792.13
2023-01-17T11:33:45.345Z,92786.28
2023-01-17T11:35:07.872Z,92791.38
2023-01-17T11:36:17.591Z,92796.78
2023-01-17T11:37:23.973Z,92787.19
2023-01-17T11:38:26.336Z,92794.84
2023-01-17T11:39:29.333Z,92788.38
2023-01-17T11:40:36.748Z,92794.09
2023-01-17T11:41:41.959Z,92791.69
2023-01-17T11:42:44.864Z,92788.06
2023-01-17T11:43:56.542Z,92789.91
2023-01-17T11:45:23.250Z,92785.53
2023-01-17T11:46:28.312Z,92789.00
2023-01-17T11:47:30.415Z,92790.94
2023-01-17T11:48:38.899Z,92787.50
2023-01-17T11:49:43.838Z,92784.50
2023-01-17T11:50:56.272Z,92785.97
2023-01-17T11:51:59.451Z,92785.38
2023-01-17T11:53:14.581Z,92779.38
2023-01-17T11:54:27.902Z,92775.59
2023-01-17T11:55:31.003Z,92768.25
2023-01-17T11:56:36.484Z,92770.06
2023-01-17T11:57:38.640Z,92765.25
2023-01-17T11:58:43.497Z,92762.09
2023-01-17T11:59:47.760Z,92765.88
2023-01-17T12:01:12.331Z,92764.97
2023-01-17T12:02:42.477Z,92765.88
2023-01-17T12:04:26.108Z,92756.41
2023-01-17T12:05:53.845Z,92763.16
2023-01-17T12:07:11.979Z,92755.81
2023-01-17T12:08:24.819Z,92747.53
2023-01-17T12:09:35.080Z,92747.84
2023-01-17T12:10:48.693Z,92744.25
2023-01-17T12:12:18.299Z,92745.28
2023-01-17T12:13:50.029Z,92745.13
2023-01-17T12:15:05.411Z,92744.06
2023-01-17T12:16:33.895Z,92738.84
2023-01-17T12:17:53.940Z,92731.91
2023-01-17T12:19:09.664Z,92727.25
2023-01-17T12:20:21.945Z,92728.91
2023-01-17T12:21:36.374Z,92722.00
2023-01-17T12:22:59.853Z,92723.50
2023-01-17T12:24:27.168Z,92722.00
2023-01-17T12:25:48.877Z,92715.69
2023-01-17T12:27:00.437Z,92720.19
2023-01-17T12:28:18.661Z,92708.03
2023-01-17T12:29:42.768Z,92706.09
2023-01-17T12:31:03.957Z,92706.41
2023-01-17T12:32:32.618Z,92698.00
2023-01-17T12:33:45.853Z,92697.81
2023-01-17T12:34:54.140Z,92699.03
2023-01-17T12:35:59.563Z,92693.63
2023-01-17T12:37:09.294Z,92685.97
2023-01-17T12:38:31.781Z,92683.13
2023-01-17T12:39:41.637Z,92687.03
2023-01-17T12:40:53.289Z,92682.34
2023-01-17T12:42:05.616Z,92678.47
2023-01-17T12:43:15.900Z,92679.38
2023-01-17T12:44:21.747Z,92676.22
2023-01-17T12:45:32.199Z,92665.56
2023-01-17T12:46:43.123Z,92665.56
2023-01-17T12:47:54.416Z,92664.97
2023-01-17T12:49:00.776Z,92665.56
2023-01-17T12:50:13.239Z,92668.09
2023-01-17T12:51:19.233Z,92656.84
2023-01-17T12:52:34.089Z,92655.81
2023-01-17T12:53:43.436Z,92660.16
2023-01-17T12:54:50.574Z,92658.50
2023-01-17T12:55:58.796Z,92657.28
2023-01-17T12:57:07.415Z,92653.53
2023-01-17T12:58:17.596Z,92648.88
2023-01-17T12:59:28.639Z,92647.09
2023-01-17T13:00:37.983Z,92655.34
2023-01-17T13:01:57.661Z,92648.44
2023-01-17T13:03:13.206Z,92641.38
2023-01-17T13:04:25.405Z,92639.41
2023-01-17T13:05:36.739Z,92642.44
2023-01-17T13:06:53.353Z,92638.53
2023-01-17T13:08:03.801Z,92637.75
2023-01-17T13:09:05.963Z,92629.66
2023-01-17T13:10:24.479Z,92633.44
2023-01-17T13:11:33.604Z,92634.91
2023-01-17T13:12:38.679Z,92632.50